createdAt,value
2023-10-26T00:01:38.305Z,98965.84
2023-10-26T00:06:39.736Z,98975.78
2023-10-26T00:11:41.157Z,98990.06
2023-10-26T00:16:42.692Z,98986.34
2023-10-26T00:21:44.127Z,98986.97
2023-10-26T00:26:45.808Z,99000.16
2023-10-26T00:31:47.297Z,99008.16
2023-10-26T00:36:48.990Z,99008.88
2023-10-26T00:41:54.704Z,99022.94
2023-10-26T00:46:56.324Z,99031.25
2023-10-26T00:52:02.086Z,99032.78
2023-10-26T00:57:04.888Z,99035.19
2023-10-26T01:02:06.698Z,99044.97
2023-10-26T01:07:08.158Z,99046.25
2023-10-26T01:12:10.403Z,99052.78
2023-10-26T01:17:12.573Z,99053.81
2023-10-26T01:22:14.156Z,99066.44
2023-10-26T01:27:15.702Z,99063.56
2023-10-26T01:32:17.127Z,99079.59
2023-10-26T01:37:18.676Z,99076.94
2023-10-26T01:42:20.139Z,99080.56
2023-10-26T01:47:22.042Z,99084.75
2023-10-26T01:52:23.623Z,99090.81
2023-10-26T01:57:25.618Z,99084.09
2023-10-26T02:02:27.072Z,99083.00
2023-10-26T02:07:28.640Z,99085.16
2023-10-26T02:12:30.107Z,99087.97
2023-10-26T02:17:31.963Z,99081.22
2023-10-26T02:22:33.597Z,99087.75
2023-10-26T02:27:35.643Z,99097.97
2023-10-26T02:32:37.274Z,99094.84
2023-10-26T02:37:38.807Z,99102.16
2023-10-26T02:42:40.545Z,99107.34
2023-10-26T02:47:42.136Z,99112.50
2023-10-26T02:52:43.649Z,99114.91
2023-10-26T02:57:45.273Z,99122.09
2023-10-26T03:02:46.819Z,99119.59
2023-10-26T03:07:48.310Z,99123.22
2023-10-26T03:12:50.590Z,99117.66
2023-10-26T03:17:52.289Z,99117.00
2023-10-26T03:22:54.292Z,99116.03
2023-10-26T03:27:55.812Z,99112.25
2023-10-26T03:32:57.360Z,99122.34
2023-10-26T03:37:58.905Z,99119.91
2023-10-26T03:43:00.355Z,99129.50
2023-10-26T03:48:01.977Z,99120.31
2023-10-26T03:53:03.576Z,99108.63
2023-10-26T03:58:05.082Z,99107.75
2023-10-26T04:03:06.767Z,99113.63
2023-10-26T04:08:08.438Z,99111.69
2023-10-26T04:13:10.266Z,99111.84
2023-10-26T04:18:12.172Z,99120.97
2023-10-26T04:23:13.843Z,99115.22
2023-10-26T04:28:16.871Z,99109.53
2023-10-26T04:33:20.165Z,99099.44
2023-10-26T04:38:21.782Z,99103.16
2023-10-26T04:43:23.233Z,99104.66
2023-10-26T04:48:24.852Z,99100.91
2023-10-26T04:53:26.252Z,99095.59
2023-10-26T04:58:27.669Z,99098.41
2023-10-26T05:03:29.112Z,99094.41
2023-10-26T05:08:30.748Z,99096.88
2023-10-26T05:13:32.197Z,99097.47
2023-10-26T05:18:33.738Z,99102.13
2023-10-26T05:23:35.434Z,99096.44
2023-10-26T05:28:37.101Z,99097.56
2023-10-26T05:33:38.741Z,99085.47
2023-10-26T05:38:40.216Z,99080.31
2023-10-26T05:43:41.695Z,99080.31
2023-10-26T05:48:43.272Z,99075.72
2023-10-26T05:53:44.920Z,99072.63
2023-10-26T05:58:46.310Z,99083.72
2023-10-26T06:03:47.764Z,99078.53
2023-10-26T06:08:49.198Z,99070.56
2023-10-26T06:13:50.715Z,99083.19
2023-10-26T06:18:52.282Z,99086.19
2023-10-26T06:23:53.843Z,99081.84
2023-10-26T06:28:55.240Z,99084.16
2023-10-26T06:33:56.721Z,99090.97
2023-10-26T06:38:58.308Z,99094.16
2023-10-26T06:43:59.967Z,99103.97
2023-10-26T06:49:06.598Z,99112.91
2023-10-26T06:54:16.797Z,99105.25
2023-10-26T06:59:18.458Z,99114.31
2023-10-26T07:04:20.217Z,99104.28
2023-10-26T07:09:22.263Z,99112.44
2023-10-26T07:14:23.835Z,99104.72
2023-10-26T07:19:25.263Z,99098.88
2023-10-26T07:24:26.924Z,99104.09
2023-10-26T07:29:28.353Z,99107.25
2023-10-26T07:34:29.827Z,99098.19
2023-10-26T07:39:45.002Z,99096.06
2023-10-26T07:44:52.518Z,99084.03
2023-10-26T07:49:53.967Z,99082.63
2023-10-26T07:54:55.441Z,99090.69
2023-10-26T07:59:56.981Z,99091.31
2023-10-26T08:04:58.412Z,99099.91
2023-10-26T08:09:59.905Z,99096.81
2023-10-26T08:16:10.577Z,99092.41
2023-10-26T08:20:23.329Z,99095.66
2023-10-26T08:25:26.029Z,99101.53
2023-10-26T08:30:27.889Z,99097.97
2023-10-26T08:35:29.334Z,99098.88
2023-10-26T08:40:31.355Z,99099.38
2023-10-26T08:45:34.881Z,99121.72
2023-10-26T08:50:36.563Z,99122.22
2023-10-26T08:55:40.424Z,99109.03
2023-10-26T09:00:41.993Z,99114.81
2023-10-26T09:05:54.421Z,99120.16
2023-10-26T09:10:55.988Z,99127.22
2023-10-26T09:15:59.898Z,99128.09
2023-10-26T09:21:09.206Z,99130.94
2023-10-26T09:26:18.210Z,99138.00
2023-10-26T09:31:24.050Z,99142.16
2023-10-26T09:36:25.570Z,99127.59
2023-10-26T09:41:27.192Z,99127.03
2023-10-26T09:46:29.515Z,99123.56
2023-10-26T09:51:31.157Z,99117.47
2023-10-26T09:56:34.285Z,99123.13
2023-10-26T10:01:37.479Z,99127.34
2023-10-26T10:06:49.077Z,99127.78
2023-10-26T10:12:06.046Z,99105.25
2023-10-26T10:17:07.603Z,99099.56
2023-10-26T10:22:37.064Z,99096.50
2023-10-26T10:27:39.382Z,99095.69
2023-10-26T10:32:44.327Z,99097.97
2023-10-26T10:38:13.695Z,99099.13
2023-10-26T10:43:15.326Z,99092.38
2023-10-26T10:48:16.775Z,99102.19
2023-10-26T10:53:18.233Z,99099.81
2023-10-26T10:58:19.733Z,99080.06
2023-10-26T11:03:22.857Z,99064.88
2023-10-26T11:08:24.734Z,99057.31
2023-10-26T11:13:26.189Z,99061.25
2023-10-26T11:18:27.942Z,99054.63
2023-10-26T11:23:29.461Z,99046.59
2023-10-26T11:28:34.402Z,99026.31
2023-10-26T11:33:40.229Z,99027.84
2023-10-26T11:38:52.097Z,99031.97
2023-10-26T11:43:53.567Z,99029.63
2023-10-26T11:48:55.091Z,99033.31
2023-10-26T11:53:57.742Z,99036.97
2023-10-26T11:58:59.167Z,99029.44
2023-10-26T12:04:00.705Z,99022.81
2023-10-26T12:09:02.267Z,99044.28
2023-10-26T12:14:03.719Z,99051.19
2023-10-26T12:19:05.213Z,99053.50
2023-10-26T12:24:06.964Z,99035.91
2023-10-26T12:29:08.411Z,99031.06
2023-10-26T12:34:10.136Z,99024.25
2023-10-26T12:39:11.720Z,99018.47
2023-10-26T12:44:13.221Z,99030.41
2023-10-26T12:49:14.694Z,99012.13
2023-10-26T12:54:16.731Z,99007.81
2023-10-26T12:59:18.183Z,98987.69
2023-10-26T13:04:19.731Z,98988.94
2023-10-26T13:09:21.626Z,98967.72
2023-10-26T13:14:23.186Z,98961.03
2023-10-26T13:19:24.728Z,98959.53
2023-10-26T13:24:26.217Z,98961.25
2023-10-26T13:29:27.635Z,98945.88
2023-10-26T13:34:29.169Z,98955.84
2023-10-26T13:39:30.694Z,98956.19
2023-10-26T13:44:32.259Z,98971.81
2023-10-26T13:49:34.023Z,98974.91
2023-10-26T13:54:36.281Z,98974.84
2023-10-26T13:59:37.747Z,98964.50
2023-10-26T14:04:40.299Z,98955.56
2023-10-26T14:09:42.197Z,98950.91
2023-10-26T14:14:43.803Z,98955.06
2023-10-26T14:19:45.390Z,98938.59
2023-10-26T14:24:47.216Z,98925.81
2023-10-26T14:29:48.673Z,98936.59
2023-10-26T14:34:50.327Z,98941.25
2023-10-26T14:39:52.403Z,98927.63
2023-10-26T14:44:53.922Z,98936.63
2023-10-26T14:49:55.550Z,98936.09
2023-10-26T14:54:57.179Z,98953.00
2023-10-26T14:59:58.684Z,98939.44
2023-10-26T15:05:00.194Z,98939.69
2023-10-26T15:10:24.375Z,98922.84
2023-10-26T15:15:24.491Z,98924.75
2023-10-26T15:20:25.964Z,98927.69
2023-10-26T15:25:27.533Z,98926.34
2023-10-26T15:30:29.125Z,98921.25
2023-10-26T15:35:31.314Z,98917.47
2023-10-26T15:40:32.775Z,98905.69
2023-10-26T15:45:34.338Z,98905.19
2023-10-26T15:50:35.919Z,98903.03
2023-10-26T15:55:37.479Z,98896.84
2023-10-26T16:00:38.983Z,98892.28
2023-10-26T16:05:40.449Z,98890.69
2023-10-26T16:10:41.890Z,98900.25
2023-10-26T16:15:43.369Z,98904.50
2023-10-26T16:20:44.831Z,98909.50
2023-10-26T16:25:46.969Z,98912.97
2023-10-26T16:30:48.577Z,98908.13
2023-10-26T16:35:50.272Z,98917.25
2023-10-26T16:40:52.413Z,98932.69
2023-10-26T16:45:56.479Z,98942.78
2023-10-26T16:50:58.050Z,98935.78
2023-10-26T16:56:04.993Z,98925.13
2023-10-26T17:01:08.466Z,98924.03
2023-10-26T17:06:10.276Z,98914.69
2023-10-26T17:11:11.933Z,98918.13
2023-10-26T17:16:13.452Z,98910.13
2023-10-26T17:21:14.963Z,98910.13
2023-10-26T17:26:16.383Z,98903.16
2023-10-26T17:31:18.327Z,98904.22
2023-10-26T17:36:19.795Z,98913.81
2023-10-26T17:41:22.082Z,98914.06
2023-10-26T17:46:23.841Z,98915.13
2023-10-26T17:51:25.630Z,98916.16
2023-10-26T17:56:27.159Z,98910.84
2023-10-26T18:01:28.767Z,98905.22
2023-10-26T18:06:30.335Z,98917.44
2023-10-26T18:11:32.390Z,98916.34
2023-10-26T18:16:33.961Z,98911.25
2023-10-26T18:21:35.506Z,98904.06
2023-10-26T18:26:36.978Z,98907.22
2023-10-26T18:31:38.521Z,98908.28
2023-10-26T18:36:40.449Z,98893.91
2023-10-26T18:41:42.221Z,98886.69
2023-10-26T18:46:43.664Z,98878.94
2023-10-26T18:51:45.134Z,98871.47
2023-10-26T18:56:46.584Z,98872.47
2023-10-26T19:01:48.054Z,98880.44
2023-10-26T19:06:49.579Z,98877.50
2023-10-26T19:11:51.224Z,98885.19
2023-10-26T19:16:52.752Z,98885.69
2023-10-26T19:21:54.370Z,98890.50
2023-10-26T19:26:55.970Z,98891.56
2023-10-26T19:31:57.473Z,98885.13
2023-10-26T19:36:58.998Z,98900.50
2023-10-26T19:42:00.504Z,98891.13
2023-10-26T19:47:02.121Z,98892.91
2023-10-26T19:52:04.367Z,98889.44
2023-10-26T19:57:05.797Z,98893.66
2023-10-26T20:02:08.054Z,98900.59
2023-10-26T20:07:09.566Z,98904.63
2023-10-26T20:12:10.964Z,98891.84
2023-10-26T20:17:12.610Z,98889.75
2023-10-26T20:22:14.154Z,98882.56
2023-10-26T20:27:16.353Z,98884.63
2023-10-26T20:32:18.307Z,98888.66
2023-10-26T20:37:19.768Z,98875.88
2023-10-26T20:42:22.477Z,98872.56
2023-10-26T20:47:23.948Z,98859.88
2023-10-26T20:52:25.399Z,98866.34
2023-10-26T20:57:26.805Z,98865.53
2023-10-26T21:02:28.255Z,98862.88
2023-10-26T21:07:29.696Z,98855.94
2023-10-26T21:12:31.599Z,98855.41
2023-10-26T21:17:33.502Z,98852.47
2023-10-26T21:22:35.799Z,98844.72
2023-10-26T21:27:37.515Z,98833.78
2023-10-26T21:32:38.923Z,98834.00
2023-10-26T21:37:40.415Z,98833.72
2023-10-26T21:42:41.825Z,98819.06
2023-10-26T21:47:43.294Z,98823.34
2023-10-26T21:52:44.931Z,98822.00
2023-10-26T21:57:46.416Z,98823.63
2023-10-26T22:02:48.030Z,98816.75
2023-10-26T22:07:50.478Z,98815.63
2023-10-26T22:12:51.912Z,98801.53
2023-10-26T22:17:53.453Z,98803.94
2023-10-26T22:22:54.887Z,98800.72
2023-10-26T22:27:56.420Z,98794.31
2023-10-26T22:32:57.858Z,98787.06
2023-10-26T22:37:59.332Z,98782.53
2023-10-26T22:43:00.820Z,98784.38
2023-10-26T22:48:02.918Z,98780.38
2023-10-26T22:53:04.571Z,98778.75
2023-10-26T22:58:06.009Z,98764.88
2023-10-26T23:03:07.566Z,98765.69
2023-10-26T23:08:09.283Z,98756.88
2023-10-26T23:13:10.794Z,98753.09
2023-10-26T23:18:12.324Z,98751.44
2023-10-26T23:23:13.897Z,98757.31
2023-10-26T23:28:15.381Z,98748.53
2023-10-26T23:33:16.820Z,98749.03
2023-10-26T23:38:18.351Z,98748.75
2023-10-26T23:43:19.833Z,98741.56
2023-10-26T23:48:22.270Z,98748.75
2023-10-26T23:53:23.778Z,98742.63
2023-10-26T23:58:25.343Z,98744.72
